Grand Lake, Arkansas
Current Conditions -  °F | °C
As of 5:53 AM on Friday 21 Nov 2014 (Local Time) from KGLH Reporting Station
Overcast Overcast  
Wind Chill: 51°   Ceiling: 6000
Heat Index: 51°   Visibility: 9mi
Dew Point: 48°   Wind: 5mph
Humidity: 89%   Direction: 130°SE
Pressure: 30.25"   Gusts: NA
Location:  33.1306°N, 91.2896°W
Report Text: KGLH 211153Z AUTO 13004KT 9SM OVC060 11/09 A3025 RMK AO2 SLP251 T01060089 10117 20100 53007
Loading
Personal Weather Stations






























Interactive Weather Map New forecast layout! Learn more

10-Day Weather Forecast

Advertisements
Track Severe Weather on mobile